Time;durP1;ratioP1;P1;durP2;ratioP2;P2;SDS_P1;SDS_P2;PMS_P1;PMS_P2;Temp;Humidity;BMP_temperature;BMP_pressure;BME280_temperature;BME280_humidity;BME280_pressure;Samples;Min_cycle;Max_cycle;Signal;HPM_P1;HPM_P2
2023/10/30 00:00:32;;;;;;;;;;;;;;;11.11;95.60;99585.21;106597;1255;65011;-85
2023/10/30 00:03:18;;;;;;;;;;;;;;;11.13;95.63;99583.12;106409;1256;124879;-85
2023/10/30 00:05:48;;;;;;;;;;;;;;;11.14;95.64;99587.86;106465;1257;61264;-85
2023/10/30 00:08:16;;;;;;;;;;;;;;;11.15;95.51;99588.75;106502;1257;61292;-87
2023/10/30 00:10:43;;;;;;;;;;;;;;;11.17;95.68;99590.16;106389;1256;124970;-87
2023/10/30 00:13:09;;;;;;;;;;;;;;;11.19;95.71;99584.73;106526;1255;66219;-87
2023/10/30 00:15:36;;;;;;;;;;;;;;;11.18;95.58;99580.34;106433;1256;125999;-87
2023/10/30 00:18:03;;;;;;;;;;;;;;;11.17;95.49;99587.36;106489;1256;61322;-87
2023/10/30 00:20:29;;;;;;;;;;;;;;;11.15;95.52;99596.83;106416;1256;61253;-87
2023/10/30 00:22:56;;;;;;;;;;;;;;;11.14;95.46;99597.52;106510;1254;124737;-87
2023/10/30 00:25:22;;;;;;;;;;;;;;;11.12;95.42;99599.10;106659;1256;61268;-86
2023/10/30 00:27:49;;;;;;;;;;;;;;;11.09;95.36;99599.96;106592;1256;124801;-87
2023/10/30 00:30:15;;;;;;;;;;;;;;;11.07;95.38;99604.87;106548;1256;61281;-87
2023/10/30 00:32:42;;;;;;;;;;;;;;;11.03;95.29;99602.57;106507;1256;61710;-87
2023/10/30 00:35:09;;;;;;;;;;;;;;;10.98;95.12;99606.93;106418;1256;124947;-87
2023/10/30 00:37:35;;;;;;;;;;;;;;;10.93;95.24;99610.77;106333;1256;66253;-87
2023/10/30 00:40:02;;;;;;;;;;;;;;;10.87;95.24;99610.56;106303;1260;124955;-86
2023/10/30 00:42:28;;;;;;;;;;;;;;;10.81;95.24;99609.66;106397;1260;61124;-87
2023/10/30 00:44:56;;;;;;;;;;;;;;;10.78;95.38;99608.76;106516;1258;61242;-86
2023/10/30 00:47:22;;;;;;;;;;;;;;;10.75;95.49;99612.42;106487;1260;74215;-85
2023/10/30 00:49:49;;;;;;;;;;;;;;;10.72;95.55;99615.39;106470;1256;65006;-86
2023/10/30 00:52:15;;;;;;;;;;;;;;;10.69;95.58;99617.83;106492;1255;124824;-86
2023/10/30 00:54:42;;;;;;;;;;;;;;;10.65;95.69;99619.91;106499;1255;61348;-85
2023/10/30 00:57:08;;;;;;;;;;;;;;;10.61;95.59;99617.95;106352;1255;125021;-84
2023/10/30 00:59:35;;;;;;;;;;;;;;;10.57;95.77;99619.85;106349;1261;74678;-85
2023/10/30 01:02:02;;;;;;;;;;;;;;;10.56;95.90;99626.52;106510;1255;65193;-86
2023/10/30 01:04:28;;;;;;;;;;;;;;;10.56;96.00;99624.76;106355;1260;124906;-85
2023/10/30 01:06:55;;;;;;;;;;;;;;;10.54;95.97;99628.77;106447;1255;61358;-85
2023/10/30 01:09:22;;;;;;;;;;;;;;;10.52;96.11;99631.39;106302;1260;124850;-85
2023/10/30 01:11:48;;;;;;;;;;;;;;;10.52;96.25;99632.63;106368;1257;74743;-85
2023/10/30 01:14:17;;;;;;;;;;;;;;;10.49;96.22;99628.73;106407;1255;64852;-85
2023/10/30 01:16:44;;;;;;;;;;;;;;;10.47;96.27;99624.69;106317;1256;125205;-86
2023/10/30 01:19:11;;;;;;;;;;;;;;;10.48;96.45;99629.09;106345;1255;61274;-85
2023/10/30 01:21:37;;;;;;;;;;;;;;;10.47;96.47;99630.48;106319;1255;124874;-86
2023/10/30 01:24:08;;;;;;;;;;;;;;;10.48;96.56;99633.65;106397;1255;73433;-85
2023/10/30 01:26:34;;;;;;;;;;;;;;;10.48;96.54;99640.48;106368;1256;64932;-86
2023/10/30 01:29:01;;;;;;;;;;;;;;;10.47;96.56;99641.19;106207;1258;125010;-87
2023/10/30 01:31:27;;;;;;;;;;;;;;;10.47;96.57;99643.81;106564;1256;61246;-86
2023/10/30 01:33:54;;;;;;;;;;;;;;;10.43;96.49;99643.61;106408;1255;124928;-87
2023/10/30 01:36:20;;;;;;;;;;;;;;;10.41;96.38;99639.03;106260;1258;74739;-86
2023/10/30 01:38:47;;;;;;;;;;;;;;;10.41;96.65;99645.86;106353;1256;65138;-86
2023/10/30 01:41:14;;;;;;;;;;;;;;;10.40;96.57;99643.92;106366;1260;124646;-86
2023/10/30 01:43:40;;;;;;;;;;;;;;;10.40;96.77;99643.05;106331;1257;61276;-86
2023/10/30 01:46:07;;;;;;;;;;;;;;;10.41;96.75;99642.53;106285;1256;124697;-86
2023/10/30 01:48:34;;;;;;;;;;;;;;;10.39;96.68;99630.59;106519;1256;74673;-86
2023/10/30 01:51:01;;;;;;;;;;;;;;;10.39;96.94;99631.64;106530;1255;125066;-87
2023/10/30 01:53:29;;;;;;;;;;;;;;;10.39;96.90;99631.29;106530;1255;71504;-83
2023/10/30 01:55:56;;;;;;;;;;;;;;;10.36;96.77;99628.13;106358;1255;61296;-84
2023/10/30 01:58:23;;;;;;;;;;;;;;;10.31;96.71;99621.76;106613;1256;125298;-82
2023/10/30 02:00:50;;;;;;;;;;;;;;;10.33;96.93;99623.36;106447;1260;72812;-86
2023/10/30 02:03:17;;;;;;;;;;;;;;;10.35;96.95;99629.51;106433;1256;125126;-86
2023/10/30 02:05:44;;;;;;;;;;;;;;;10.34;96.91;99624.77;106241;1261;71554;-86
2023/10/30 02:08:11;;;;;;;;;;;;;;;10.33;96.94;99628.27;106382;1258;61274;-86
2023/10/30 02:10:38;;;;;;;;;;;;;;;10.33;97.01;99625.64;106254;1258;124844;-87
2023/10/30 02:13:07;;;;;;;;;;;;;;;10.33;96.92;99634.23;106504;1260;75636;-87
2023/10/30 02:15:34;;;;;;;;;;;;;;;10.31;96.98;99639.47;106409;1256;123838;-85
2023/10/30 02:18:01;;;;;;;;;;;;;;;10.29;96.98;99646.45;106493;1255;70553;-85
2023/10/30 02:20:27;;;;;;;;;;;;;;;10.28;97.00;99647.48;106563;1255;61372;-84
2023/10/30 02:22:54;;;;;;;;;;;;;;;10.29;97.05;99649.27;106445;1258;124965;-85
2023/10/30 02:25:22;;;;;;;;;;;;;;;10.31;97.01;99645.80;106343;1257;73851;-87
2023/10/30 02:27:49;;;;;;;;;;;;;;;10.30;97.06;99647.90;106264;1256;124802;-86
2023/10/30 02:30:16;;;;;;;;;;;;;;;10.32;97.12;99654.40;106193;1255;72927;-85
2023/10/30 02:32:46;;;;;;;;;;;;;;;10.34;97.19;99653.35;106428;1260;61185;-85
2023/10/30 02:35:13;;;;;;;;;;;;;;;10.35;97.17;99657.05;106358;1256;124699;-86
2023/10/30 02:37:40;;;;;;;;;;;;;;;10.35;96.99;99662.65;106521;1255;73214;-86
2023/10/30 02:40:07;;;;;;;;;;;;;;;10.35;97.16;99660.73;106284;1260;126610;-82
2023/10/30 02:42:34;;;;;;;;;;;;;;;10.36;97.06;99663.01;106354;1260;72835;-84
2023/10/30 02:45:00;;;;;;;;;;;;;;;10.35;97.00;99664.23;106462;1255;125370;-82
2023/10/30 02:47:28;;;;;;;;;;;;;;;10.32;96.89;99663.16;106487;1256;61226;-86
2023/10/30 02:49:55;;;;;;;;;;;;;;;10.33;97.01;99670.19;106577;1256;74323;-82
2023/10/30 02:52:22;;;;;;;;;;;;;;;10.34;97.05;99666.51;106413;1258;126136;-87
2023/10/30 02:54:48;;;;;;;;;;;;;;;10.37;97.09;99668.63;106497;1260;72727;-88
2023/10/30 02:57:15;;;;;;;;;;;;;;;10.40;97.09;99677.06;106151;1261;124780;-87
2023/10/30 02:59:41;;;;;;;;;;;;;;;10.41;97.12;99673.92;106683;1255;61203;-81
2023/10/30 03:02:08;;;;;;;;;;;;;;;10.44;97.02;99672.56;106621;1257;73412;-81
2023/10/30 03:04:35;;;;;;;;;;;;;;;10.44;97.07;99666.95;106302;1255;124873;-88
2023/10/30 03:07:01;;;;;;;;;;;;;;;10.46;96.98;99666.25;106275;1260;71050;-89
2023/10/30 03:09:29;;;;;;;;;;;;;;;10.48;97.01;99665.23;106335;1260;124901;-88
2023/10/30 03:11:56;;;;;;;;;;;;;;;10.51;96.91;99665.42;106520;1260;61350;-88
2023/10/30 03:14:23;;;;;;;;;;;;;;;10.52;96.79;99677.52;106454;1258;73193;-88
2023/10/30 03:16:50;;;;;;;;;;;;;;;10.52;96.62;99679.80;106285;1257;123722;-88
2023/10/30 03:19:17;;;;;;;;;;;;;;;10.52;96.69;99678.93;106386;1255;72603;-88
2023/10/30 03:21:44;;;;;;;;;;;;;;;10.53;96.61;99689.98;106339;1256;125518;-82
2023/10/30 03:24:11;;;;;;;;;;;;;;;10.53;96.54;99695.97;106536;1255;61248;-88
2023/10/30 03:26:37;;;;;;;;;;;;;;;10.53;96.46;99701.91;106931;1256;74663;-88
2023/10/30 03:29:04;;;;;;;;;;;;;;;10.55;96.53;99703.69;106503;1256;123581;-88
2023/10/30 03:31:30;;;;;;;;;;;;;;;10.55;96.41;99706.50;106461;1255;71395;-87
2023/10/30 03:33:57;;;;;;;;;;;;;;;10.55;96.39;99708.95;106342;1257;124894;-88
2023/10/30 03:36:24;;;;;;;;;;;;;;;10.54;96.29;99708.94;106317;1257;61287;-87
2023/10/30 03:38:53;;;;;;;;;;;;;;;10.54;96.22;99712.80;106391;1257;74666;-88
2023/10/30 03:41:19;;;;;;;;;;;;;;;10.54;96.27;99720.86;106319;1260;124383;-88
2023/10/30 03:43:46;;;;;;;;;;;;;;;10.54;96.12;99718.07;106375;1255;71290;-88
2023/10/30 03:46:13;;;;;;;;;;;;;;;10.52;96.08;99715.07;106332;1256;126169;-81
2023/10/30 03:48:39;;;;;;;;;;;;;;;10.52;96.09;99720.16;106460;1255;61274;-80
2023/10/30 03:51:06;;;;;;;;;;;;;;;10.51;96.02;99722.44;106383;1255;125483;-82
2023/10/30 03:53:33;;;;;;;;;;;;;;;10.50;96.02;99731.00;106605;1255;64712;-87
2023/10/30 03:56:03;;;;;;;;;;;;;;;10.48;95.97;99730.64;106346;1255;72724;-87
2023/10/30 03:58:30;;;;;;;;;;;;;;;10.48;96.01;99730.28;106327;1255;125025;-86
2023/10/30 04:00:56;;;;;;;;;;;;;;;10.48;95.98;99736.08;106475;1255;60786;-87
2023/10/30 04:03:23;;;;;;;;;;;;;;;10.48;95.99;99737.31;106282;1256;124793;-88
2023/10/30 04:05:51;;;;;;;;;;;;;;;10.47;95.82;99742.05;106509;1260;66294;-82
2023/10/30 04:08:18;;;;;;;;;;;;;;;10.46;95.72;99744.31;106432;1255;72602;-82
2023/10/30 04:10:44;;;;;;;;;;;;;;;10.45;95.76;99737.27;106382;1259;124537;-87
2023/10/30 04:13:11;;;;;;;;;;;;;;;10.47;96.00;99734.31;106405;1256;61345;-86
2023/10/30 04:15:37;;;;;;;;;;;;;;;10.48;95.76;99736.60;106311;1256;125820;-87
2023/10/30 04:18:04;;;;;;;;;;;;;;;10.47;95.73;99735.55;106403;1256;64982;-82
2023/10/30 04:20:32;;;;;;;;;;;;;;;10.48;95.75;99734.33;106467;1256;72836;-82
2023/10/30 04:22:59;;;;;;;;;;;;;;;10.47;95.63;99736.95;106515;1256;125342;-83
2023/10/30 04:25:25;;;;;;;;;;;;;;;10.46;95.70;99749.04;106502;1255;61323;-86
2023/10/30 04:27:53;;;;;;;;;;;;;;;10.46;95.48;99756.94;106420;1255;124625;-82
2023/10/30 04:30:19;;;;;;;;;;;;;;;10.44;95.42;99755.52;106557;1256;64903;-87
2023/10/30 04:32:46;;;;;;;;;;;;;;;10.43;95.46;99762.15;106592;1258;71434;-81
2023/10/30 04:35:13;;;;;;;;;;;;;;;10.43;95.27;99759.02;106498;1256;124973;-81
2023/10/30 04:37:39;;;;;;;;;;;;;;;10.44;95.51;99751.65;106570;1256;59370;-82
2023/10/30 04:40:06;;;;;;;;;;;;;;;10.47;95.45;99741.70;106437;1255;125176;-88
2023/10/30 04:42:33;;;;;;;;;;;;;;;10.50;95.53;99741.55;106654;1259;64698;-87
2023/10/30 04:44:59;;;;;;;;;;;;;;;10.52;95.42;99749.45;106419;1256;124984;-86
2023/10/30 04:47:26;;;;;;;;;;;;;;;10.54;95.40;99752.27;106519;1255;61475;-87
2023/10/30 04:49:52;;;;;;;;;;;;;;;10.56;95.43;99753.17;106556;1259;61162;-87
2023/10/30 04:52:19;;;;;;;;;;;;;;;10.57;95.33;99750.73;106515;1259;124665;-81
2023/10/30 04:54:46;;;;;;;;;;;;;;;10.60;95.32;99760.21;106510;1256;66360;-81
2023/10/30 04:57:13;;;;;;;;;;;;;;;10.59;95.22;99761.09;106352;1256;125169;-80
2023/10/30 04:59:39;;;;;;;;;;;;;;;10.60;95.13;99762.85;106477;1260;59647;-82
2023/10/30 05:02:06;;;;;;;;;;;;;;;10.61;95.14;99760.05;106526;1260;61354;-88
2023/10/30 05:04:33;;;;;;;;;;;;;;;10.62;94.97;99765.33;106428;1255;124856;-88
2023/10/30 05:07:01;;;;;;;;;;;;;;;10.61;94.85;99761.80;106469;1260;65832;-82
2023/10/30 05:09:28;;;;;;;;;;;;;;;10.61;94.79;99762.34;106427;1257;124776;-81
2023/10/30 05:11:55;;;;;;;;;;;;;;;10.62;94.97;99761.45;106554;1257;61269;-87
2023/10/30 05:14:21;;;;;;;;;;;;;;;10.62;94.91;99755.34;106421;1256;61168;-87
2023/10/30 05:16:48;;;;;;;;;;;;;;;10.62;94.76;99755.84;106381;1256;124700;-86
2023/10/30 05:19:14;;;;;;;;;;;;;;;10.61;94.71;99771.63;106454;1256;65047;-86
2023/10/30 05:21:41;;;;;;;;;;;;;;;10.63;94.72;99757.80;106453;1256;125352;-87
2023/10/30 05:24:08;;;;;;;;;;;;;;;10.63;94.64;99770.61;106362;1258;61392;-87
2023/10/30 05:26:34;;;;;;;;;;;;;;;10.63;94.54;99781.13;106300;1262;61205;-88
2023/10/30 05:29:01;;;;;;;;;;;;;;;10.61;94.40;99783.75;106525;1257;124672;-87
2023/10/30 05:31:27;;;;;;;;;;;;;;;10.60;94.49;99786.71;106425;1257;65180;-87
2023/10/30 05:33:54;;;;;;;;;;;;;;;10.61;94.57;99790.58;106283;1257;125372;-79
2023/10/30 05:36:21;;;;;;;;;;;;;;;10.61;94.42;99795.84;106515;1258;61360;-85
2023/10/30 05:38:48;;;;;;;;;;;;;;;10.60;94.34;99793.73;106405;1256;61264;-86
2023/10/30 05:41:15;;;;;;;;;;;;;;;10.61;94.40;99787.95;106430;1259;124500;-85
2023/10/30 05:43:41;;;;;;;;;;;;;;;10.60;94.32;99799.70;106506;1262;64539;-85
2023/10/30 05:46:08;;;;;;;;;;;;;;;10.59;94.30;99799.52;106284;1257;124950;-84
2023/10/30 05:48:34;;;;;;;;;;;;;;;10.58;94.21;99801.59;106526;1256;61263;-85
2023/10/30 05:51:01;;;;;;;;;;;;;;;10.57;94.20;99792.83;106314;1256;125047;-85
2023/10/30 05:53:28;;;;;;;;;;;;;;;10.56;94.11;99788.43;106645;1259;74687;-86
2023/10/30 05:55:54;;;;;;;;;;;;;;;10.55;94.14;99786.84;106411;1256;66107;-85
2023/10/30 05:58:21;;;;;;;;;;;;;;;10.55;94.11;99796.83;106411;1256;125119;-89
2023/10/30 06:00:47;;;;;;;;;;;;;;;10.54;94.12;99806.48;106406;1256;61289;-85
2023/10/30 06:03:14;;;;;;;;;;;;;;;10.54;94.13;99814.89;106408;1257;125022;-85
2023/10/30 06:05:41;;;;;;;;;;;;;;;10.53;94.10;99808.58;106437;1256;74529;-86
2023/10/30 06:08:08;;;;;;;;;;;;;;;10.53;93.93;99819.27;106526;1255;66466;-85
2023/10/30 06:10:37;;;;;;;;;;;;;;;10.52;93.84;99823.30;106353;1255;124588;-83
2023/10/30 06:13:03;;;;;;;;;;;;;;;10.52;93.93;99828.04;106655;1258;61132;-84
2023/10/30 06:15:30;;;;;;;;;;;;;;;10.53;93.91;99829.09;106566;1256;126254;-83
2023/10/30 06:17:57;;;;;;;;;;;;;;;10.55;93.88;99825.61;106539;1259;73246;-84
2023/10/30 06:20:25;;;;;;;;;;;;;;;10.58;93.95;99828.80;106077;1259;66320;-85
2023/10/30 06:22:52;;;;;;;;;;;;;;;10.63;94.05;99832.02;106591;1262;124727;-85
2023/10/30 06:25:19;;;;;;;;;;;;;;;10.70;94.03;99841.55;106406;1259;61372;-87
2023/10/30 06:27:45;;;;;;;;;;;;;;;10.76;94.08;99853.19;106848;1255;124714;-82
2023/10/30 06:30:17;;;;;;;;;;;;;;;10.84;93.99;99856.25;106755;1256;75340;-83
2023/10/30 06:32:43;;;;;;;;;;;;;;;10.93;93.94;99842.64;106447;1260;65993;-82
2023/10/30 06:35:11;;;;;;;;;;;;;;;11.03;93.92;99847.81;105820;1256;125027;-81
2023/10/30 06:37:38;;;;;;;;;;;;;;;11.10;93.76;99857.89;105953;1255;61163;-82
2023/10/30 06:40:05;;;;;;;;;;;;;;;11.17;93.51;99870.59;105833;1260;124685;-82
2023/10/30 06:42:31;;;;;;;;;;;;;;;11.22;93.36;99870.27;106000;1260;73814;-82
2023/10/30 06:44:58;;;;;;;;;;;;;;;11.27;93.24;99873.48;105987;1255;66317;-82
2023/10/30 06:47:26;;;;;;;;;;;;;;;11.30;92.97;99878.59;105982;1260;72598;-82
2023/10/30 06:49:53;;;;;;;;;;;;;;;11.30;92.71;99878.77;105974;1255;61432;-82
2023/10/30 06:52:20;;;;;;;;;;;;;;;11.32;92.72;99882.83;106008;1255;124926;-82
2023/10/30 06:54:46;;;;;;;;;;;;;;;11.37;92.77;99892.35;106030;1260;61255;-82
2023/10/30 06:57:13;;;;;;;;;;;;;;;11.44;92.69;99889.95;105988;1255;125090;-81
2023/10/30 06:59:39;;;;;;;;;;;;;;;11.47;92.47;99896.30;106236;1255;72755;-83
2023/10/30 07:02:06;;;;;;;;;;;;;;;11.48;92.17;99907.20;106787;1259;61582;-83
2023/10/30 07:04:32;;;;;;;;;;;;;;;11.50;92.18;99907.55;106639;1257;124806;-83
2023/10/30 07:06:59;;;;;;;;;;;;;;;11.50;91.92;99910.37;106706;1259;73151;-84
2023/10/30 07:09:26;;;;;;;;;;;;;;;11.49;91.82;99911.24;106373;1259;125497;-83
2023/10/30 07:11:52;;;;;;;;;;;;;;;11.49;91.78;99921.78;106374;1255;61357;-83
2023/10/30 07:14:19;;;;;;;;;;;;;;;11.49;91.71;99930.22;106500;1258;61154;-80
2023/10/30 07:16:45;;;;;;;;;;;;;;;11.50;91.54;99929.53;106391;1255;124682;-78
2023/10/30 07:19:12;;;;;;;;;;;;;;;11.54;91.80;99929.02;105987;1261;74044;-84
2023/10/30 07:21:38;;;;;;;;;;;;;;;11.60;91.82;99933.11;106530;1259;124938;-81
2023/10/30 07:24:05;;;;;;;;;;;;;;;11.68;91.89;99937.21;105870;1256;72852;-82
2023/10/30 07:26:32;;;;;;;;;;;;;;;11.76;91.98;99936.56;105906;1260;61288;-83
2023/10/30 07:28:58;;;;;;;;;;;;;;;11.86;91.94;99937.52;105980;1257;125252;-83
2023/10/30 07:31:25;;;;;;;;;;;;;;;11.94;91.75;99937.77;106414;1260;74506;-83
2023/10/30 07:33:52;;;;;;;;;;;;;;;11.99;91.57;99943.44;106341;1255;124819;-83
2023/10/30 07:36:18;;;;;;;;;;;;;;;12.00;91.31;99944.85;106415;1258;72718;-83
2023/10/30 07:38:45;;;;;;;;;;;;;;;11.99;90.99;99953.29;106455;1260;61225;-81
2023/10/30 07:41:12;;;;;;;;;;;;;;;11.98;90.83;99964.35;106279;1255;124915;-85
2023/10/30 07:43:38;;;;;;;;;;;;;;;11.95;90.63;99962.94;106469;1255;73731;-82
2023/10/30 07:46:06;;;;;;;;;;;;;;;11.94;90.49;99976.82;106432;1256;124714;-83
2023/10/30 07:48:32;;;;;;;;;;;;;;;11.97;90.53;99976.85;106608;1256;72723;-82
2023/10/30 07:51:02;;;;;;;;;;;;;;;12.07;90.61;99973.37;106430;1255;125286;-82
2023/10/30 07:53:30;;;;;;;;;;;;;;;12.18;90.77;99985.06;106675;1256;59980;-82
2023/10/30 07:55:57;;;;;;;;;;;;;;;12.28;90.57;99990.40;106820;1257;74766;-81
2023/10/30 07:58:23;;;;;;;;;;;;;;;12.36;90.33;99992.55;106391;1259;124972;-82
2023/10/30 08:00:52;;;;;;;;;;;;;;;12.46;90.33;99991.02;106457;1257;72800;-81
2023/10/30 08:03:18;;;;;;;;;;;;;;;12.55;90.29;99987.38;106594;1256;125040;-81
2023/10/30 08:05:45;;;;;;;;;;;;;;;12.63;90.00;99988.64;106517;1256;59876;-82
2023/10/30 08:08:13;;;;;;;;;;;;;;;12.70;89.78;99989.55;106362;1256;74772;-82
2023/10/30 08:10:40;;;;;;;;;;;;;;;12.79;89.62;99991.16;106347;1257;124611;-82
2023/10/30 08:13:07;;;;;;;;;;;;;;;12.88;89.48;99999.13;106509;1255;71129;-82
2023/10/30 08:15:34;;;;;;;;;;;;;;;12.96;89.40;99998.09;106440;1259;124749;-81
2023/10/30 08:18:02;;;;;;;;;;;;;;;13.00;88.97;99990.70;106385;1259;61221;-82
2023/10/30 08:20:29;;;;;;;;;;;;;;;13.01;88.71;99993.16;106396;1261;73876;-82
2023/10/30 08:22:56;;;;;;;;;;;;;;;13.07;88.70;100013.64;106376;1256;124659;-82
2023/10/30 08:25:22;;;;;;;;;;;;;;;13.17;88.78;100018.05;106542;1256;70978;-82
2023/10/30 08:27:49;;;;;;;;;;;;;;;13.30;88.66;100019.52;106281;1256;124770;-83
2023/10/30 08:30:16;;;;;;;;;;;;;;;13.42;88.50;100023.25;106501;1260;61227;-86
2023/10/30 08:32:43;;;;;;;;;;;;;;;13.52;88.20;100019.23;106391;1260;74624;-87
2023/10/30 08:35:09;;;;;;;;;;;;;;;13.66;88.23;100024.17;106464;1258;125310;-82
2023/10/30 08:37:36;;;;;;;;;;;;;;;13.90;88.35;100027.17;106558;1257;72733;-82
2023/10/30 08:40:03;;;;;;;;;;;;;;;14.21;88.32;100022.03;106434;1256;124929;-86
2023/10/30 08:42:29;;;;;;;;;;;;;;;14.48;87.91;100028.15;106536;1256;60675;-87
2023/10/30 08:44:56;;;;;;;;;;;;;;;14.64;87.39;100025.85;106551;1256;74772;-87
2023/10/30 08:47:23;;;;;;;;;;;;;;;14.78;86.94;100027.56;106435;1268;124812;-87
2023/10/30 08:49:50;;;;;;;;;;;;;;;14.96;86.53;100032.61;106581;1256;72716;-87
2023/10/30 08:52:16;;;;;;;;;;;;;;;15.12;86.28;100036.06;106514;1256;124777;-86
2023/10/30 08:54:43;;;;;;;;;;;;;;;15.22;85.56;100035.66;106627;1260;61249;-87
2023/10/30 08:57:10;;;;;;;;;;;;;;;15.25;84.84;100039.00;106512;1256;125056;-87
2023/10/30 08:59:38;;;;;;;;;;;;;;;15.37;84.92;100042.47;106642;1262;66272;-87
2023/10/30 09:02:06;;;;;;;;;;;;;;;15.50;84.38;100044.69;106655;1260;71353;-87
2023/10/30 09:04:33;;;;;;;;;;;;;;;15.61;84.05;100046.20;106619;1256;125124;-86
2023/10/30 09:07:00;;;;;;;;;;;;;;;15.66;83.31;100056.25;106535;1256;61291;-86
2023/10/30 09:09:26;;;;;;;;;;;;;;;15.69;83.25;100057.64;106421;1256;126026;-85
2023/10/30 09:11:53;;;;;;;;;;;;;;;15.68;82.48;100048.80;106537;1256;64222;-86
2023/10/30 09:14:20;;;;;;;;;;;;;;;15.63;82.37;100062.98;106586;1256;70729;-86
2023/10/30 09:16:46;;;;;;;;;;;;;;;15.65;82.10;100067.58;106423;1261;124747;-86
2023/10/30 09:19:13;;;;;;;;;;;;;;;15.57;81.65;100062.50;106595;1256;61227;-86
2023/10/30 09:21:40;;;;;;;;;;;;;;;15.47;81.31;100065.92;106539;1256;171620;-86
2023/10/30 09:24:07;;;;;;;;;;;;;;;15.37;81.13;100067.94;106635;1256;65114;-86
2023/10/30 09:26:33;;;;;;;;;;;;;;;15.33;80.92;100084.39;106532;1256;72740;-87
2023/10/30 09:29:00;;;;;;;;;;;;;;;15.26;80.56;100090.61;106819;1256;126193;-86
2023/10/30 09:31:30;;;;;;;;;;;;;;;15.16;80.40;100085.89;106839;1260;61270;-82
2023/10/30 09:33:57;;;;;;;;;;;;;;;15.04;80.32;100085.40;106795;1256;124756;-82
2023/10/30 09:36:24;;;;;;;;;;;;;;;14.90;80.10;100086.52;106856;1259;65963;-82
2023/10/30 09:38:51;;;;;;;;;;;;;;;14.76;79.89;100089.39;106610;1256;72339;-82
2023/10/30 09:41:18;;;;;;;;;;;;;;;14.65;79.90;100088.17;106437;1256;124863;-81
2023/10/30 09:43:51;;;;;;;;;;;;;;;14.59;80.20;100093.13;106498;1261;61172;-82
2023/10/30 09:46:18;;;;;;;;;;;;;;;14.52;80.20;100086.05;106356;1256;125907;-82
2023/10/30 09:48:45;;;;;;;;;;;;;;;14.51;80.31;100091.70;106474;1256;65004;-81
2023/10/30 09:51:12;;;;;;;;;;;;;;;14.55;80.37;100097.88;106325;1260;125493;-81
2023/10/30 09:53:39;;;;;;;;;;;;;;;14.58;80.26;100094.19;106357;1257;61302;-81
2023/10/30 09:56:08;;;;;;;;;;;;;;;14.56;80.19;100105.29;106529;1259;61163;-81
2023/10/30 09:58:35;;;;;;;;;;;;;;;14.56;80.29;100107.08;106418;1259;125024;-81
2023/10/30 10:01:02;;;;;;;;;;;;;;;14.57;79.86;100106.90;106474;1262;65038;-81
2023/10/30 10:03:28;;;;;;;;;;;;;;;14.58;79.86;100099.48;106320;1261;125288;-81
2023/10/30 10:05:55;;;;;;;;;;;;;;;14.60;79.85;100100.55;106293;1256;59247;-82
2023/10/30 10:08:22;;;;;;;;;;;;;;;14.62;79.82;100098.61;106514;1256;61271;-81
2023/10/30 10:11:02;;;;;;;;;;;;;;;14.67;80.06;100101.59;106762;1256;124302;-80
2023/10/30 10:13:29;;;;;;;;;;;;;;;14.73;80.08;100108.10;106581;1259;65232;-81
2023/10/30 10:15:55;;;;;;;;;;;;;;;14.87;80.03;100112.14;106384;1260;124047;-81
2023/10/30 10:18:26;;;;;;;;;;;;;;;15.02;80.12;100106.09;106532;1254;61260;-82
2023/10/30 10:20:56;;;;;;;;;;;;;;;15.17;79.92;100108.52;106549;1256;61884;-82
2023/10/30 10:23:23;;;;;;;;;;;;;;;15.29;79.53;100105.63;106643;1256;124026;-81
2023/10/30 10:25:52;;;;;;;;;;;;;;;15.37;79.17;100103.28;106336;1255;64351;-81
2023/10/30 10:28:18;;;;;;;;;;;;;;;15.36;78.61;100116.20;106458;1260;124988;-86
2023/10/30 10:30:45;;;;;;;;;;;;;;;15.34;78.32;100122.39;106677;1260;61170;-82
2023/10/30 10:33:12;;;;;;;;;;;;;;;15.35;78.19;100124.34;106398;1260;125110;-81
2023/10/30 10:35:40;;;;;;;;;;;;;;;15.40;78.19;100124.66;106658;1259;73329;-82
2023/10/30 10:38:08;;;;;;;;;;;;;;;15.45;78.02;100132.59;106550;1260;65304;-81
2023/10/30 10:40:35;;;;;;;;;;;;;;;15.47;77.89;100138.41;106493;1257;124904;-86
2023/10/30 10:43:02;;;;;;;;;;;;;;;15.47;77.57;100143.19;106726;1254;61424;-86
2023/10/30 10:45:30;;;;;;;;;;;;;;;15.42;77.42;100132.61;106540;1258;125023;-86
2023/10/30 10:47:56;;;;;;;;;;;;;;;15.39;77.19;100130.85;106572;1256;73379;-86
2023/10/30 10:50:23;;;;;;;;;;;;;;;15.35;77.04;100133.87;106868;1260;65324;-86
2023/10/30 10:52:51;;;;;;;;;;;;;;;15.33;76.92;100129.48;106546;1256;124984;-86
2023/10/30 10:55:18;;;;;;;;;;;;;;;15.26;76.80;100135.51;106785;1260;61280;-85
2023/10/30 10:57:47;;;;;;;;;;;;;;;15.24;76.82;100133.58;106591;1255;125143;-87
2023/10/30 11:00:15;;;;;;;;;;;;;;;15.17;76.63;100134.84;106629;1261;74800;-86
2023/10/30 11:02:41;;;;;;;;;;;;;;;15.10;76.63;100133.45;106472;1258;64962;-86
2023/10/30 11:05:08;;;;;;;;;;;;;;;15.06;76.78;100130.80;106402;1256;125998;-86
2023/10/30 11:07:42;;;;;;;;;;;;;;;15.06;76.79;100132.04;106399;1261;61372;-86
2023/10/30 11:10:11;;;;;;;;;;;;;;;15.06;76.74;100139.99;106411;1260;124069;-87
2023/10/30 11:12:52;;;;;;;;;;;;;;;15.05;76.62;100142.66;106438;1257;73435;-87
2023/10/30 11:15:20;;;;;;;;;;;;;;;14.99;76.43;100140.73;106247;1261;124727;-86
2023/10/30 11:18:06;;;;;;;;;;;;;;;14.92;76.39;100144.98;106613;1257;72734;-86
2023/10/30 11:20:33;;;;;;;;;;;;;;;14.90;76.53;100149.40;106693;1260;59565;-87
2023/10/30 11:22:59;;;;;;;;;;;;;;;14.87;76.48;100152.59;106597;1257;124668;-87
2023/10/30 11:25:35;;;;;;;;;;;;;;;14.86;76.55;100152.77;106586;1259;73223;-86
2023/10/30 11:28:02;;;;;;;;;;;;;;;14.87;76.45;100151.89;106591;1256;124839;-86
2023/10/30 11:30:31;;;;;;;;;;;;;;;14.88;76.34;100148.17;106432;1256;72719;-82
2023/10/30 11:32:58;;;;;;;;;;;;;;;14.91;76.32;100141.80;106481;1258;61379;-86
2023/10/30 11:35:25;;;;;;;;;;;;;;;14.93;76.23;100138.45;106560;1258;59659;-85
2023/10/30 11:37:54;;;;;;;;;;;;;;;14.93;76.17;100136.33;106501;1260;73629;-86
2023/10/30 11:40:21;;;;;;;;;;;;;;;14.98;76.18;100137.01;106503;1261;124948;-81
2023/10/30 11:42:48;;;;;;;;;;;;;;;15.04;76.07;100141.95;106589;1259;72795;-85
2023/10/30 11:45:15;;;;;;;;;;;;;;;15.10;75.93;100141.58;106513;1261;125119;-86
2023/10/30 11:47:49;;;;;;;;;;;;;;;15.15;75.90;100136.27;106475;1260;61240;-86
2023/10/30 11:50:16;;;;;;;;;;;;;;;15.25;76.03;100137.45;106434;1256;74717;-81
2023/10/30 11:52:44;;;;;;;;;;;;;;;15.40;76.15;100136.86;106342;1261;125015;-81
2023/10/30 11:55:10;;;;;;;;;;;;;;;15.54;76.05;100136.95;106315;1257;72613;-82
2023/10/30 11:57:37;;;;;;;;;;;;;;;15.65;75.65;100138.50;106300;1262;124694;-82
2023/10/30 12:00:07;;;;;;;;;;;;;;;15.75;75.55;100142.01;106449;1261;61193;-82
2023/10/30 12:02:38;;;;;;;;;;;;;;;15.87;75.41;100147.96;106495;1260;74686;-82
2023/10/30 12:05:06;;;;;;;;;;;;;;;15.99;75.23;100159.20;106305;1257;124128;-81
2023/10/30 12:07:32;;;;;;;;;;;;;;;16.08;74.93;100152.77;106584;1260;71095;-82
2023/10/30 12:10:03;;;;;;;;;;;;;;;16.10;74.52;100144.79;106196;1256;124484;-80
2023/10/30 12:12:30;;;;;;;;;;;;;;;16.14;74.29;100150.95;106401;1260;61408;-82
2023/10/30 12:14:58;;;;;;;;;;;;;;;16.21;74.20;100157.10;106293;1263;73858;-81
2023/10/30 12:17:25;;;;;;;;;;;;;;;16.25;73.95;100149.10;106412;1262;65918;-82
2023/10/30 12:19:52;;;;;;;;;;;;;;;16.27;73.70;100154.40;106229;1256;71863;-82
2023/10/30 12:22:19;;;;;;;;;;;;;;;16.26;73.44;100156.89;106432;1260;125298;-87
2023/10/30 12:24:46;;;;;;;;;;;;;;;16.27;73.49;100158.99;106710;1258;61265;-87
2023/10/30 12:27:20;;;;;;;;;;;;;;;16.30;73.28;100160.57;106534;1260;125524;-87
2023/10/30 12:29:46;;;;;;;;;;;;;;;16.27;73.07;100160.41;106468;1261;66279;-87